Pagrindinis puslapis
METAR-TAF:

METAR-TAF

Oro uostai :

Ndžamena, Čadas

platuma: 12-08N, ilguma: 015-02E, Aukštis: 295 m

Dabartinis oras

Ataskaita buvo paskelbta 1 valandą ir 14 minutes, ne 22:00 UTC
Vėjas 4 kt iš Pietų
Temperatūra 28°C
Drėgmė 79%
Slėgis 1011 hPa
Matomumas: 6000 m

METAR: FTTJ 202200Z 19004KT 6000 NSC 28/24 Q1011 NOSIG

Laikas: 00:14 (23:14 UTC)

Prognozė

Ataskaita buvo paskelbta 6 valandos ir 14 minutes, ne 17:00 UTC
Prognozė galioja nuo 20 metu 18 UTC su 21 metu 24 UTC
Vėjas 6 kt iš Vakarų
Matomumas: 8000 m
Laikinai
nuo 21 metu 10 UTC su 21 metu 18 UTC
Matomumas: 3500 m
dulkės

TAF: FTTJ 201700Z 2018/2124 28006KT 8000 NSC TEMPO 2110/2118 3500 DU

Orai ataskaitas ir orų prognozės (METAR, TAF).

turimą stotys yra geltonos ir raudonos taškus žemėlapyje.

Perkelti pele per norėdami pamatyti stoties vardą.

Tada spustelėkite, norėdami matyti oro stebėjimo ir prognozės.

Norėdami pakeisti žemėlapį: spustelėkite ant žalios mygtukų su juodo kryžiaus žemyn,; žalią mygtuką su brūkšneliu, jei norite nutolinti; arba žalių rodyklių gretimoms žemėlapius.


METAR-TAF: